Strona główna
METAR-TAF:

METAR-TAF

Lotnisko :

Lahr, Niemcy

Szerokość geograficzna: 48-22-09N, Długość geograficzna: 007-49-40E, wysokość: 156 m

METAR: brakujący

czas: 09:13 (07:13 UTC)

Prognoza

Raport powstał 14 godziny i 13 minut temu, godzina 17:00 UTC
Prognoza ważna od 20 godzina 18 UTC do 20 godzina 24 UTC
Wiatr 7 kt od południowy zachód
Widzialność 10 km lub więcej
Brak chmur poniżej 1500 m i brak chmur cumulonimbus
Prawdopodobieństwo 30% :
Przejściowo
od 20 godzina 18 UTC do 20 godzina 20 UTC
Wiatr 15 kt od zachodnio-południowy zachód w porywach dochodzący do 30 kt
Rozproszone chmury na wysokości 5500 ft, Cumulonimbus.
burza, deszcz
Prawdopodobieństwo 40% :
Przejściowo
od 20 godzina 20 UTC do 20 godzina 24 UTC
Wiatr 20 kt od zachód w porywach dochodzący do 35 kt
Przerywane chmury na wysokości 4000 ft, Cumulonimbus.
burza, deszcz

TAF: EDTL 201700Z 2018/2024 22007KT CAVOK PROB30 TEMPO 2018/2020 25015G30KT TSRA SCT055CB PROB40 TEMPO 2020/2024 26020G35KT TSRA BKN040CB

Obserwacja i prognoza pogody dla ponad 4000 lotnisk (raport METAR i TAF).

Dostępne stacje oznaczono żółtymi i czerwonymi punktami na mapie.

Najedź kursorem aby zobaczyć nazwę stacji.

Kliknij aby zobaczyć obserwacje i prognozy pogody.

Aby zmienić mapę: kliknij na zielony przycisk z czarnym krzyżykiem, aby powiększyć; na zielony przycisk z myślnikiem, aby pomniejszyć; na zielone strzałki, aby przejść do map sąsiednich.


METAR-TAF: